Terminal Aerodrome Forecast
Issued by NWS

Home | Current Version | Previous Version | Text Only | Print | Product List | Glossary On
Versions: 1 2 3 4 5 6 7 8 9 10 11 12 13 14 15
416
FTUS41 KPHI 292334
TAFPNE
TAF
KPNE 292334Z 3000/3024 12007KT P6SM OVC010
     FM300200 11005KT 5SM BR OVC010
     FM300600 12005KT 4SM BR OVC005
      TEMPO 3008/3012 2SM -DZ BR OVC003
     FM301700 14008KT 5SM BR OVC007=

USA.gov is the U.S. government's official web portal to all federal, state and local government web resources and services.